Strona główna
METAR-TAF:

METAR-TAF

Lotnisko :

Port lotniczy Bahrajn

Bahrajn, Bahrajn

Szerokość geograficzna: 26-16N, Długość geograficzna: 050-39E, wysokość: 2 m

Aktualna obserwacja pogody

Raport powstał 13 minut temu, godzina 16:30 UTC
Wiatr 4 kt od wschód
Temperatura 34°C
Wilgotność 67%
Ciśnienie 1008 hPa
Widzialność: 5000 m
bezchmurnie
zmętnienie

METAR: OBBI 231630Z 09004KT 5000 HZ SKC 34/27 Q1008 NOSIG

czas: 19:43 (16:43 UTC)

Prognoza

Raport powstał 5 godziny i 43 minut temu, godzina 11:00 UTC
Prognoza ważna od 23 godzina 12 UTC do 24 godzina 18 UTC
Wiatr 5 kt z kierunków zmiennych
Widzialność: 7000 m
Prawdopodobieństwo 30% :
Przejściowo
od 23 godzina 20 UTC do 24 godzina 06 UTC
Widzialność: 5000 m
zmętnienie

TAF: OBBI 231100Z 2312/2418 VRB05KT 7000 NSC PROB30 TEMPO 2320/2406 5000 HZ

Obserwacja i prognoza pogody dla ponad 4000 lotnisk (raport METAR i TAF).

Dostępne stacje oznaczono żółtymi i czerwonymi punktami na mapie.

Najedź kursorem aby zobaczyć nazwę stacji.

Kliknij aby zobaczyć obserwacje i prognozy pogody.

Aby zmienić mapę: kliknij na zielony przycisk z czarnym krzyżykiem, aby powiększyć; na zielony przycisk z myślnikiem, aby pomniejszyć; na zielone strzałki, aby przejść do map sąsiednich.


METAR-TAF: